Kezdőlap
METAR-TAF:

METAR-TAF

Repülőterek :

Besztercebánya, Szlovákia

földrajzi szélesség: 48-38-17N, földrajzi hosszúság: 019-08-03E, magasság: 318 m

Jelenlegi meteorológiai megfigyelések

A jelentés 20 perccel ezelõtt készült, 21:00 UTC
Délkeleti szél 3 kt
Hőmérséklet 19°C
Páratartalom 78%
Légköri nyomás 1021 hPa
Látótávolság 10 km, vagy több
Kevés felhő 6000 lábon

METAR: LZSL 272100Z 13003KT 9999 FEW060 19/15 Q1021

Idő: 23:20 (21:20 UTC)


TAF: hiányzik

Meteorológiai megfigyelések és előrejelzések több, mint 4000 repülőtéren (METAR és TAF jelentéseket).

A térképen piros és sárga pontok jelzik az elérhető meteorológiai állomásokat.

Mozgassa az egeret a pont fölött, hogy megjelenjen az állomás neve.

Azután kattintson az időjárási megfigyelések és előrejelzések megtekintéséhez.

A térkép megváltoztatása: kattintson a fekete keresztel jelölt zöld gombra ráközelítéshez, a vonallal jelölt zöld gombra távolításhoz, vagy a zöld nyilakra a szomszédos térképek eléréséhez.


METAR-TAF: